createdAt,value
2019-05-23T00:02:13.823Z,95.00
2019-05-23T00:05:03.924Z,95.10
2019-05-23T00:07:35.590Z,95.70
2019-05-23T00:10:08.138Z,95.80
2019-05-23T00:13:10.133Z,96.10
2019-05-23T00:15:44.848Z,96.50
2019-05-23T00:18:20.837Z,97.20
2019-05-23T00:20:49.882Z,97.40
2019-05-23T00:23:21.238Z,97.20
2019-05-23T00:25:52.665Z,96.90
2019-05-23T00:28:23.532Z,97.00
2019-05-23T00:31:01.453Z,96.40
2019-05-23T00:33:34.716Z,96.60
2019-05-23T00:36:05.622Z,96.10
2019-05-23T00:38:37.190Z,95.90
2019-05-23T00:41:08.245Z,96.30
2019-05-23T00:43:41.139Z,96.30
2019-05-23T00:46:12.621Z,96.10
2019-05-23T00:48:44.628Z,95.90
2019-05-23T00:51:16.543Z,96.10
2019-05-23T00:53:47.377Z,96.00
2019-05-23T00:56:18.571Z,96.20
2019-05-23T00:58:50.203Z,96.40
2019-05-23T01:01:22.629Z,96.80
2019-05-23T01:03:54.744Z,96.70
2019-05-23T01:06:25.872Z,97.00
2019-05-23T01:08:57.247Z,97.60
2019-05-23T01:11:28.392Z,97.20
2019-05-23T01:13:59.370Z,97.40
2019-05-23T01:16:31.528Z,97.50
2019-05-23T01:19:02.452Z,97.50
2019-05-23T01:21:52.355Z,97.40
2019-05-23T01:24:42.123Z,97.60
2019-05-23T01:27:14.931Z,98.30
2019-05-23T01:29:49.964Z,98.70
2019-05-23T01:32:25.477Z,98.60
2019-05-23T01:34:56.639Z,98.90
2019-05-23T01:37:27.668Z,98.90
2019-05-23T01:39:58.455Z,98.70
2019-05-23T01:42:29.295Z,99.10
2019-05-23T01:45:02.277Z,98.30
2019-05-23T01:47:33.674Z,98.00
2019-05-23T01:50:05.611Z,97.90
2019-05-23T01:52:36.367Z,98.20
2019-05-23T01:55:08.105Z,98.20
2019-05-23T01:57:40.461Z,98.30
2019-05-23T02:00:13.097Z,98.40
2019-05-23T02:02:44.163Z,98.50
2019-05-23T02:05:15.192Z,98.40
2019-05-23T02:07:45.948Z,98.30
2019-05-23T02:10:17.581Z,98.20
2019-05-23T02:12:48.861Z,98.20
2019-05-23T02:15:20.418Z,98.20
2019-05-23T02:17:52.538Z,97.90
2019-05-23T02:20:24.700Z,98.10
2019-05-23T02:22:55.671Z,97.70
2019-05-23T02:25:26.459Z,97.40
2019-05-23T02:27:57.297Z,97.10
2019-05-23T02:30:34.581Z,96.80
2019-05-23T02:33:02.806Z,96.30
2019-05-23T02:35:33.998Z,96.90
2019-05-23T02:38:22.548Z,97.30
2019-05-23T02:40:59.768Z,97.70
2019-05-23T02:43:32.246Z,98.30
2019-05-23T02:46:07.967Z,98.60
2019-05-23T02:48:43.718Z,98.70
2019-05-23T02:51:23.676Z,98.90
2019-05-23T02:53:56.644Z,98.80
2019-05-23T02:56:31.191Z,99.10
2019-05-23T02:59:30.837Z,99.40
2019-05-23T03:02:45.632Z,99.90
2019-05-23T03:05:18.887Z,99.80
2019-05-23T03:07:50.758Z,99.90
2019-05-23T03:10:24.694Z,99.80
2019-05-23T03:12:58.268Z,99.90
2019-05-23T03:15:30.985Z,99.60
2019-05-23T03:18:04.117Z,99.20
2019-05-23T03:20:35.457Z,98.90
2019-05-23T03:23:15.513Z,99.10
2019-05-23T03:26:36.187Z,99.00
2019-05-23T03:29:08.781Z,99.00
2019-05-23T03:31:58.743Z,98.90
2019-05-23T03:34:31.843Z,99.50
2019-05-23T03:37:03.816Z,99.50
2019-05-23T03:39:34.681Z,99.90
2019-05-23T03:42:05.539Z,99.90
2019-05-23T03:44:36.305Z,99.90
2019-05-23T03:47:09.337Z,99.90
2019-05-23T03:49:40.164Z,99.90
2019-05-23T03:52:11.455Z,99.40
2019-05-23T03:54:43.610Z,98.10
2019-05-23T03:57:15.150Z,97.90
2019-05-23T03:59:47.211Z,97.30
2019-05-23T04:02:20.901Z,97.20
2019-05-23T04:04:52.182Z,95.80
2019-05-23T04:07:23.924Z,95.70
2019-05-23T04:09:54.639Z,95.10
2019-05-23T04:12:25.445Z,95.00
2019-05-23T04:14:56.922Z,94.90
2019-05-23T04:17:28.102Z,94.70
2019-05-23T04:19:58.925Z,94.70
2019-05-23T04:22:29.931Z,94.90
2019-05-23T04:25:02.111Z,94.70
2019-05-23T04:27:33.077Z,94.90
2019-05-23T04:30:03.930Z,94.90
2019-05-23T04:32:34.747Z,95.00
2019-05-23T04:35:06.213Z,95.10
2019-05-23T04:37:36.962Z,95.70
2019-05-23T04:40:10.264Z,95.50
2019-05-23T04:42:41.032Z,95.40
2019-05-23T04:45:12.099Z,95.60
2019-05-23T04:47:43.356Z,94.50
2019-05-23T04:50:16.311Z,94.80
2019-05-23T04:52:47.561Z,94.80
2019-05-23T04:55:19.162Z,94.50
2019-05-23T04:57:49.961Z,94.40
2019-05-23T05:00:20.777Z,93.60
2019-05-23T05:02:51.994Z,92.60
2019-05-23T05:05:23.081Z,93.00
2019-05-23T05:07:53.857Z,92.80
2019-05-23T05:10:26.413Z,92.60
2019-05-23T05:12:57.642Z,91.00
2019-05-23T05:15:28.716Z,91.30
2019-05-23T05:17:59.875Z,92.20
2019-05-23T05:20:30.888Z,90.40
2019-05-23T05:23:01.858Z,90.50
2019-05-23T05:25:32.734Z,89.50
2019-05-23T05:28:03.922Z,89.50
2019-05-23T05:30:34.869Z,90.20
2019-05-23T05:33:05.690Z,90.10
2019-05-23T05:35:36.691Z,88.70
2019-05-23T05:38:07.384Z,89.70
2019-05-23T05:40:38.269Z,87.30
2019-05-23T05:43:09.716Z,84.90
2019-05-23T05:45:40.603Z,83.40
2019-05-23T05:48:11.938Z,82.90
2019-05-23T05:50:42.725Z,84.80
2019-05-23T05:53:13.772Z,84.30
2019-05-23T05:55:44.710Z,84.60
2019-05-23T05:58:15.486Z,84.60
2019-05-23T06:00:58.991Z,83.70
2019-05-23T06:03:29.953Z,83.00
2019-05-23T06:06:18.152Z,84.00
2019-05-23T06:08:51.870Z,83.80
2019-05-23T06:11:22.964Z,78.10
2019-05-23T06:13:54.125Z,78.30
2019-05-23T06:16:25.429Z,81.20
2019-05-23T06:18:56.163Z,78.80
2019-05-23T06:21:28.871Z,75.70
2019-05-23T06:23:59.755Z,75.30
2019-05-23T06:26:31.164Z,78.30
2019-05-23T06:29:01.908Z,77.50
2019-05-23T06:31:33.686Z,74.60
2019-05-23T06:34:04.804Z,74.30
2019-05-23T06:36:35.809Z,73.90
2019-05-23T06:39:09.975Z,72.20
2019-05-23T06:41:40.795Z,72.00
2019-05-23T06:44:12.599Z,72.10
2019-05-23T06:46:43.595Z,66.30
2019-05-23T06:49:14.703Z,71.20
2019-05-23T06:51:45.508Z,64.70
2019-05-23T06:54:16.663Z,63.30
2019-05-23T06:56:47.410Z,63.50
2019-05-23T06:59:18.178Z,63.80
2019-05-23T07:01:49.238Z,63.30
2019-05-23T07:04:20.939Z,63.70
2019-05-23T07:06:51.886Z,62.70
2019-05-23T07:09:23.622Z,62.90
2019-05-23T07:11:57.399Z,60.00
2019-05-23T07:14:28.554Z,59.30
2019-05-23T07:16:59.331Z,63.00
2019-05-23T07:19:30.088Z,60.60
2019-05-23T07:22:00.844Z,61.70
2019-05-23T07:24:32.341Z,63.40
2019-05-23T07:27:03.387Z,64.20
2019-05-23T07:29:35.015Z,59.50
2019-05-23T07:32:06.279Z,67.10
2019-05-23T07:34:37.346Z,63.70
2019-05-23T07:37:08.323Z,67.00
2019-05-23T07:39:39.199Z,64.40
2019-05-23T07:42:10.475Z,63.80
2019-05-23T07:44:48.248Z,65.20
2019-05-23T07:47:15.729Z,63.50
2019-05-23T07:49:46.562Z,61.50
2019-05-23T07:52:17.625Z,60.30
2019-05-23T07:55:00.112Z,62.70
2019-05-23T07:57:31.247Z,61.80
2019-05-23T08:00:03.724Z,59.20
2019-05-23T08:02:37.882Z,59.20
2019-05-23T08:05:11.023Z,57.70
2019-05-23T08:07:41.941Z,62.10
2019-05-23T08:10:13.041Z,60.20
2019-05-23T08:12:44.699Z,63.70
2019-05-23T08:15:17.434Z,59.70
2019-05-23T08:17:48.291Z,63.60
2019-05-23T08:20:19.316Z,56.80
2019-05-23T08:22:50.025Z,57.50
2019-05-23T08:25:21.230Z,57.90
2019-05-23T08:27:52.025Z,58.20
2019-05-23T08:30:23.862Z,56.30
2019-05-23T08:32:54.599Z,56.10
2019-05-23T08:35:25.865Z,56.50
2019-05-23T08:37:56.733Z,54.80
2019-05-23T08:40:29.420Z,59.40
2019-05-23T08:43:00.235Z,57.20
2019-05-23T08:45:31.170Z,55.00
2019-05-23T08:48:02.034Z,55.00
2019-05-23T08:50:33.154Z,50.80
2019-05-23T08:53:04.134Z,56.90
2019-05-23T08:55:35.789Z,53.40
2019-05-23T08:58:06.730Z,54.10
2019-05-23T09:00:40.661Z,55.70
2019-05-23T09:03:12.880Z,55.50
2019-05-23T09:05:44.826Z,58.20
2019-05-23T09:08:17.360Z,59.40
2019-05-23T09:10:50.451Z,61.50
2019-05-23T09:13:21.545Z,61.30
2019-05-23T09:15:53.600Z,60.20
2019-05-23T09:18:24.468Z,60.50
2019-05-23T09:20:55.947Z,62.70
2019-05-23T09:23:27.114Z,64.00
2019-05-23T09:25:59.824Z,62.70
2019-05-23T09:28:30.615Z,61.30
2019-05-23T09:31:01.492Z,62.00
2019-05-23T09:33:32.275Z,54.30
2019-05-23T09:36:03.183Z,56.40
2019-05-23T09:38:34.050Z,55.30
2019-05-23T09:41:04.997Z,54.30
2019-05-23T09:43:35.699Z,56.70
2019-05-23T09:46:06.458Z,58.30
2019-05-23T09:48:37.234Z,55.00
2019-05-23T09:51:08.404Z,50.70
2019-05-23T09:53:39.162Z,57.50
2019-05-23T09:56:09.973Z,48.30
2019-05-23T09:58:40.698Z,48.10
2019-05-23T10:01:11.478Z,46.50
2019-05-23T10:03:42.318Z,49.20
2019-05-23T10:06:13.031Z,50.40
2019-05-23T10:08:43.787Z,53.20
2019-05-23T10:11:14.609Z,53.20
2019-05-23T10:13:45.350Z,53.20
2019-05-23T10:16:16.136Z,49.90
2019-05-23T10:18:46.960Z,50.80
2019-05-23T10:21:17.729Z,50.90
2019-05-23T10:23:48.396Z,50.10
2019-05-23T10:26:19.282Z,50.40
2019-05-23T10:28:53.109Z,50.30
2019-05-23T10:31:24.205Z,49.80
2019-05-23T10:33:54.912Z,46.00
2019-05-23T10:36:25.658Z,47.50
2019-05-23T10:38:56.365Z,52.70
2019-05-23T10:41:27.214Z,50.70
2019-05-23T10:43:57.957Z,54.80
2019-05-23T10:46:29.155Z,51.20
2019-05-23T10:48:59.960Z,50.60
2019-05-23T10:51:30.717Z,51.00
2019-05-23T10:54:01.421Z,49.80
2019-05-23T10:56:32.142Z,52.10
2019-05-23T10:59:02.921Z,53.50
2019-05-23T11:01:34.184Z,49.50
2019-05-23T11:04:05.318Z,51.70
2019-05-23T11:06:36.635Z,49.90
2019-05-23T11:09:09.188Z,50.10
2019-05-23T11:11:40.096Z,49.80
2019-05-23T11:14:11.109Z,51.00
2019-05-23T11:16:42.441Z,49.60
2019-05-23T11:19:13.309Z,51.90
2019-05-23T11:21:44.004Z,49.80
2019-05-23T11:24:15.911Z,48.30
2019-05-23T11:26:46.661Z,51.40
2019-05-23T11:29:17.632Z,47.50
2019-05-23T11:31:48.470Z,52.50
2019-05-23T11:34:19.442Z,52.70
2019-05-23T11:36:50.338Z,52.30
2019-05-23T11:39:22.723Z,46.00
2019-05-23T11:41:53.551Z,51.20
2019-05-23T11:44:24.283Z,46.90
2019-05-23T11:46:55.318Z,41.80
2019-05-23T11:49:26.209Z,39.20
2019-05-23T11:51:57.685Z,39.80
2019-05-23T11:54:29.323Z,40.90
2019-05-23T11:57:00.346Z,39.00
2019-05-23T11:59:31.654Z,42.10
2019-05-23T12:02:20.210Z,38.80
2019-05-23T12:04:52.839Z,38.80
2019-05-23T12:07:27.449Z,40.70
2019-05-23T12:09:58.246Z,38.00
2019-05-23T12:12:29.509Z,38.40
2019-05-23T12:15:00.304Z,35.70
2019-05-23T12:17:32.036Z,35.80
2019-05-23T12:20:02.953Z,37.10
2019-05-23T12:22:34.186Z,37.30
2019-05-23T12:25:21.466Z,39.10
2019-05-23T12:27:39.362Z,37.00
2019-05-23T12:30:13.085Z,36.70
2019-05-23T12:32:43.801Z,39.60
2019-05-23T12:35:14.987Z,38.60
2019-05-23T12:37:45.763Z,39.00
2019-05-23T12:40:17.239Z,38.70
2019-05-23T12:42:47.970Z,39.90
2019-05-23T12:45:20.182Z,39.80
2019-05-23T12:47:56.359Z,40.10
2019-05-23T12:50:30.953Z,40.70
2019-05-23T12:53:01.824Z,37.40
2019-05-23T12:55:32.869Z,34.90
2019-05-23T12:58:03.616Z,35.00
2019-05-23T13:00:56.588Z,37.60
2019-05-23T13:03:29.146Z,37.40
2019-05-23T13:05:59.949Z,38.00
2019-05-23T13:08:30.757Z,38.40
2019-05-23T13:11:01.558Z,39.50
2019-05-23T13:13:32.439Z,39.50
2019-05-23T13:16:03.206Z,40.30
2019-05-23T13:18:33.962Z,39.60
2019-05-23T13:21:05.099Z,41.80
2019-05-23T13:23:36.015Z,40.50
2019-05-23T13:26:06.830Z,40.00
2019-05-23T13:28:37.562Z,39.00
2019-05-23T13:31:08.564Z,38.00
2019-05-23T13:33:39.620Z,37.60
2019-05-23T13:36:11.331Z,37.80
2019-05-23T13:38:42.183Z,39.70
2019-05-23T13:41:13.014Z,40.10
2019-05-23T13:43:44.219Z,39.10
2019-05-23T13:46:15.229Z,37.20
2019-05-23T13:48:46.020Z,38.30
2019-05-23T13:51:16.786Z,38.80
2019-05-23T13:53:47.522Z,34.90
2019-05-23T13:56:19.448Z,33.50
2019-05-23T13:58:50.415Z,34.90
2019-05-23T14:01:21.202Z,34.00
2019-05-23T14:03:52.150Z,34.10
2019-05-23T14:06:23.193Z,32.80
2019-05-23T14:08:53.991Z,36.30
2019-05-23T14:11:43.604Z,37.20
2019-05-23T14:14:32.635Z,36.30
2019-05-23T14:17:33.985Z,34.90
2019-05-23T14:20:23.196Z,35.30
2019-05-23T14:23:24.135Z,35.70
2019-05-23T14:26:13.731Z,34.20
2019-05-23T14:29:02.858Z,33.60
2019-05-23T14:31:59.874Z,33.50
2019-05-23T14:34:48.364Z,35.70
2019-05-23T14:37:42.352Z,36.00
2019-05-23T14:40:31.899Z,37.40
2019-05-23T14:43:25.080Z,35.30
2019-05-23T14:46:17.250Z,35.80
2019-05-23T14:49:16.085Z,36.90
2019-05-23T14:52:33.964Z,34.50
2019-05-23T14:55:22.947Z,35.00
2019-05-23T14:58:11.684Z,37.90
2019-05-23T15:01:00.684Z,36.10
2019-05-23T15:03:49.945Z,36.90
2019-05-23T15:06:39.139Z,39.50
2019-05-23T15:09:27.976Z,39.00
2019-05-23T15:12:17.187Z,40.80
2019-05-23T15:15:06.758Z,42.10
2019-05-23T15:17:55.809Z,40.40
2019-05-23T15:20:45.069Z,40.70
2019-05-23T15:23:33.999Z,40.00
2019-05-23T15:26:23.944Z,41.60
2019-05-23T15:29:12.911Z,40.70
2019-05-23T15:32:03.208Z,41.60
2019-05-23T15:34:52.216Z,41.60
2019-05-23T15:37:41.319Z,42.90
2019-05-23T15:40:30.395Z,40.20
2019-05-23T15:43:19.086Z,39.10
2019-05-23T15:46:07.987Z,39.80
2019-05-23T15:48:57.155Z,39.40
2019-05-23T15:51:55.871Z,42.70
2019-05-23T15:54:52.482Z,44.60
2019-05-23T15:57:48.450Z,43.00
2019-05-23T16:00:56.573Z,42.20
2019-05-23T16:03:50.264Z,42.50
2019-05-23T16:06:40.034Z,45.20
2019-05-23T16:09:31.070Z,44.30
2019-05-23T16:12:20.997Z,44.80
2019-05-23T16:15:10.137Z,42.90
2019-05-23T16:17:59.148Z,43.20
2019-05-23T16:20:49.374Z,43.30
2019-05-23T16:23:38.417Z,46.90
2019-05-23T16:26:27.942Z,43.60
2019-05-23T16:29:18.523Z,43.60
2019-05-23T16:32:07.342Z,42.80
2019-05-23T16:34:56.025Z,42.70
2019-05-23T16:37:45.474Z,42.70
2019-05-23T16:40:34.737Z,42.40
2019-05-23T16:43:24.176Z,43.50
2019-05-23T16:46:13.167Z,46.00
2019-05-23T16:49:02.178Z,44.40
2019-05-23T16:51:51.129Z,45.30
2019-05-23T16:54:43.900Z,47.40
2019-05-23T16:57:42.366Z,47.80
2019-05-23T17:00:49.487Z,48.30
2019-05-23T17:04:06.100Z,45.40
2019-05-23T17:07:00.668Z,47.60
2019-05-23T17:10:09.173Z,47.50
2019-05-23T17:13:22.049Z,47.10
2019-05-23T17:16:42.444Z,48.50
2019-05-23T17:19:39.011Z,48.50
2019-05-23T17:22:51.833Z,47.90
2019-05-23T17:25:52.894Z,45.20
2019-05-23T17:28:45.761Z,49.40
2019-05-23T17:31:36.863Z,47.80
2019-05-23T17:34:25.619Z,47.20
2019-05-23T17:37:16.490Z,48.50
2019-05-23T17:40:05.987Z,49.80
2019-05-23T17:42:54.967Z,49.50
2019-05-23T17:45:43.678Z,49.00
2019-05-23T17:48:32.600Z,48.80
2019-05-23T17:51:21.841Z,46.80
2019-05-23T17:54:11.459Z,49.20
2019-05-23T17:57:00.191Z,51.60
2019-05-23T17:59:48.892Z,52.60
2019-05-23T18:02:37.873Z,53.40
2019-05-23T18:05:27.102Z,53.80
2019-05-23T18:08:15.994Z,54.20
2019-05-23T18:11:05.375Z,54.40
2019-05-23T18:13:54.454Z,53.90
2019-05-23T18:16:44.427Z,54.80
2019-05-23T18:19:34.057Z,54.70
2019-05-23T18:22:23.019Z,55.60
2019-05-23T18:25:13.199Z,56.20
2019-05-23T18:28:01.732Z,55.70
2019-05-23T18:30:55.382Z,57.10
2019-05-23T18:33:44.765Z,57.10
2019-05-23T18:36:34.244Z,56.80
2019-05-23T18:39:24.580Z,57.70
2019-05-23T18:42:13.779Z,58.20
2019-05-23T18:45:04.527Z,58.60
2019-05-23T18:47:54.409Z,59.10
2019-05-23T18:50:43.398Z,61.30
2019-05-23T18:53:32.086Z,61.10
2019-05-23T18:56:21.090Z,62.40
2019-05-23T18:59:11.261Z,64.10
2019-05-23T19:02:00.122Z,64.40
2019-05-23T19:04:51.133Z,66.20
2019-05-23T19:07:41.069Z,65.10
2019-05-23T19:10:29.712Z,64.40
2019-05-23T19:13:19.039Z,62.50
2019-05-23T19:16:07.739Z,61.50
2019-05-23T19:18:56.878Z,61.10
2019-05-23T19:21:46.547Z,61.10
2019-05-23T19:24:36.800Z,62.00
2019-05-23T19:27:26.420Z,62.40
2019-05-23T19:30:15.791Z,63.60
2019-05-23T19:33:04.871Z,67.30
2019-05-23T19:35:53.942Z,68.20
2019-05-23T19:38:42.542Z,69.20
2019-05-23T19:41:37.468Z,69.80
2019-05-23T19:44:22.834Z,68.80
2019-05-23T19:47:11.934Z,68.10
2019-05-23T19:50:00.882Z,67.90
2019-05-23T19:52:49.436Z,69.30
2019-05-23T19:55:40.333Z,70.00
2019-05-23T19:58:29.469Z,70.70
2019-05-23T20:01:20.740Z,71.10
2019-05-23T20:04:09.856Z,71.50
2019-05-23T20:06:59.404Z,71.40
2019-05-23T20:09:48.892Z,70.40
2019-05-23T20:12:38.192Z,69.60
2019-05-23T20:15:28.234Z,68.70
2019-05-23T20:18:16.866Z,68.70
2019-05-23T20:21:07.387Z,67.20
2019-05-23T20:23:56.677Z,67.50
2019-05-23T20:26:45.928Z,67.70
2019-05-23T20:29:35.409Z,66.70
2019-05-23T20:32:24.439Z,66.60
2019-05-23T20:35:14.000Z,65.50
2019-05-23T20:38:02.685Z,65.50
2019-05-23T20:40:51.483Z,64.70
2019-05-23T20:43:40.122Z,64.30
2019-05-23T20:46:28.924Z,64.30
2019-05-23T20:49:18.284Z,63.40
2019-05-23T20:52:07.635Z,62.90
2019-05-23T20:54:56.846Z,62.50
2019-05-23T20:57:46.178Z,62.10
2019-05-23T21:00:44.960Z,62.30
2019-05-23T21:03:36.065Z,61.80
2019-05-23T21:06:25.431Z,62.90
2019-05-23T21:09:15.896Z,63.40
2019-05-23T21:12:04.115Z,63.90
2019-05-23T21:14:56.466Z,65.30
2019-05-23T21:17:45.246Z,64.50
2019-05-23T21:20:34.703Z,65.20
2019-05-23T21:23:24.150Z,64.20
2019-05-23T21:26:13.578Z,64.50
2019-05-23T21:29:03.265Z,63.80
2019-05-23T21:31:52.190Z,64.20
2019-05-23T21:34:41.201Z,62.80
2019-05-23T21:37:29.772Z,63.40
2019-05-23T21:40:32.106Z,64.30
2019-05-23T21:43:20.928Z,65.00
2019-05-23T21:46:10.164Z,65.40
2019-05-23T21:48:59.302Z,64.70
2019-05-23T21:51:51.634Z,65.30
2019-05-23T21:54:38.889Z,64.60
2019-05-23T21:57:28.090Z,65.20
2019-05-23T22:00:26.353Z,64.40
2019-05-23T22:03:15.665Z,65.80
2019-05-23T22:06:05.330Z,66.90
2019-05-23T22:08:55.358Z,67.50
2019-05-23T22:11:45.237Z,67.40
2019-05-23T22:14:34.117Z,67.80
2019-05-23T22:17:23.669Z,68.70
2019-05-23T22:20:13.253Z,67.90
2019-05-23T22:23:02.421Z,68.20
2019-05-23T22:25:51.662Z,67.20
2019-05-23T22:28:41.396Z,66.40
2019-05-23T22:31:36.795Z,65.90
2019-05-23T22:34:43.550Z,65.90
2019-05-23T22:37:33.072Z,65.70
2019-05-23T22:40:21.636Z,64.40
2019-05-23T22:43:20.771Z,65.00
2019-05-23T22:46:01.473Z,65.30
2019-05-23T22:48:50.103Z,65.90
2019-05-23T22:51:39.125Z,65.50
2019-05-23T22:54:28.297Z,66.10
2019-05-23T22:57:17.108Z,64.20
2019-05-23T23:00:06.507Z,66.00
2019-05-23T23:02:55.369Z,65.30
2019-05-23T23:05:43.959Z,66.10
2019-05-23T23:08:32.931Z,66.10
2019-05-23T23:11:21.824Z,66.30
2019-05-23T23:14:10.816Z,65.10
2019-05-23T23:17:00.191Z,66.50
2019-05-23T23:19:48.883Z,66.40
2019-05-23T23:22:37.737Z,65.70
2019-05-23T23:25:27.016Z,65.40
2019-05-23T23:28:16.266Z,66.50
2019-05-23T23:31:04.940Z,66.50
2019-05-23T23:33:53.987Z,67.40
2019-05-23T23:36:43.158Z,67.30
2019-05-23T23:39:31.839Z,67.70
2019-05-23T23:42:21.240Z,67.20
2019-05-23T23:45:27.515Z,67.20
2019-05-23T23:48:34.349Z,67.40
2019-05-23T23:51:41.304Z,68.50
2019-05-23T23:54:48.330Z,70.10
2019-05-23T23:57:55.735Z,71.20
